Time;durP1;ratioP1;P1;durP2;ratioP2;P2;SDS_P1;SDS_P2;PMS_P1;PMS_P2;Temp;Humidity;BMP_temperature;BMP_pressure;BME280_temperature;BME280_humidity;BME280_pressure;Samples;Min_cycle;Max_cycle;Signal;HPM_P1;HPM_P2
2021/10/20 00:02:05;;;;;;;8.23;5.43;;;12.10;99.90;;;;;;5104846;28;20023;-59
2021/10/20 00:04:31;;;;;;;7.63;5.70;;;12.10;99.90;;;;;;5113257;28;20043;-60
2021/10/20 00:06:59;;;;;;;7.03;4.97;;;12.10;99.90;;;;;;5111953;28;20020;-59
2021/10/20 00:09:24;;;;;;;7.60;5.47;;;12.10;99.90;;;;;;5112863;28;20027;-60
2021/10/20 00:11:50;;;;;;;5.88;4.78;;;12.10;99.90;;;;;;5113049;28;20377;-58
2021/10/20 00:14:16;;;;;;;6.88;5.15;;;12.10;99.90;;;;;;5113683;28;20106;-60
2021/10/20 00:16:42;;;;;;;7.80;5.40;;;12.10;99.90;;;;;;5112986;28;20016;-59
2021/10/20 00:19:08;;;;;;;11.95;4.75;;;12.10;99.90;;;;;;5112711;28;20107;-60
2021/10/20 00:21:34;;;;;;;8.52;5.72;;;12.10;99.90;;;;;;5116553;22;20087;-58
2021/10/20 00:24:00;;;;;;;9.75;5.65;;;12.20;99.90;;;;;;5092785;28;20020;-58
2021/10/20 00:26:26;;;;;;;8.10;5.22;;;12.20;99.90;;;;;;5092967;28;20017;-57
2021/10/20 00:28:51;;;;;;;7.57;5.40;;;12.20;99.90;;;;;;5092834;28;20032;-58
2021/10/20 00:31:17;;;;;;;7.13;4.97;;;12.20;99.90;;;;;;5092919;28;20435;-59
2021/10/20 00:33:42;;;;;;;9.57;5.55;;;12.20;99.90;;;;;;5092353;28;20143;-58
2021/10/20 00:36:08;;;;;;;8.07;5.93;;;12.20;99.90;;;;;;5093125;28;20024;-59
2021/10/20 00:38:34;;;;;;;11.32;6.18;;;12.20;99.90;;;;;;5092609;28;20036;-57
2021/10/20 00:40:59;;;;;;;14.23;5.75;;;12.20;99.90;;;;;;5092663;28;20118;-58
2021/10/20 00:43:25;;;;;;;11.10;6.70;;;12.10;99.90;;;;;;5092872;28;20069;-59
2021/10/20 00:45:51;;;;;;;6.97;5.38;;;12.10;99.90;;;;;;5092817;28;20568;-59
2021/10/20 00:48:17;;;;;;;7.30;5.68;;;12.10;99.90;;;;;;5092330;28;20063;-59
2021/10/20 00:50:43;;;;;;;8.85;5.18;;;12.10;99.90;;;;;;5092535;28;20059;-57
2021/10/20 00:53:10;;;;;;;8.05;4.97;;;12.10;99.90;;;;;;5092493;28;20028;-58
2021/10/20 00:55:36;;;;;;;9.90;5.45;;;12.00;99.90;;;;;;5092587;28;20039;-59
2021/10/20 00:58:02;;;;;;;6.95;5.32;;;12.00;99.90;;;;;;5089230;28;20025;-58
2021/10/20 01:00:28;;;;;;;15.63;5.65;;;12.00;99.90;;;;;;5092475;28;20049;-59
2021/10/20 01:02:55;;;;;;;14.65;5.93;;;11.90;99.90;;;;;;5092466;28;20036;-58
2021/10/20 01:05:20;;;;;;;12.27;6.15;;;11.90;99.90;;;;;;5092517;28;20448;-59
2021/10/20 01:07:46;;;;;;;7.85;5.25;;;11.90;99.90;;;;;;5091994;28;20024;-58
2021/10/20 01:10:13;;;;;;;9.38;5.70;;;11.90;99.90;;;;;;5092182;28;20076;-58
2021/10/20 01:12:40;;;;;;;8.18;5.40;;;11.80;99.90;;;;;;5092002;28;20115;-59
2021/10/20 01:15:11;;;;;;;9.43;7.13;;;11.80;99.90;;;;;;5092195;28;20024;-59
2021/10/20 01:17:37;;;;;;;8.57;6.18;;;11.80;99.90;;;;;;5091828;28;20031;-58
2021/10/20 01:20:05;;;;;;;9.27;5.90;;;11.80;99.90;;;;;;5091918;28;20024;-58
2021/10/20 01:22:32;;;;;;;13.50;5.35;;;11.80;99.90;;;;;;5091798;28;20504;-57
2021/10/20 01:24:59;;;;;;;9.43;5.97;;;11.80;99.90;;;;;;5091959;28;20150;-57
2021/10/20 01:27:25;;;;;;;12.32;5.90;;;11.70;99.90;;;;;;5091766;28;20062;-58
2021/10/20 01:29:51;;;;;;;10.70;5.90;;;11.70;99.90;;;;;;5091564;28;20028;-60
2021/10/20 01:32:16;;;;;;;7.55;5.85;;;11.60;99.90;;;;;;5092030;28;20085;-58
2021/10/20 01:34:42;;;;;;;8.52;6.18;;;11.60;99.90;;;;;;5091740;28;20103;-57
2021/10/20 01:37:09;;;;;;;7.97;5.88;;;11.60;99.90;;;;;;5091518;28;20028;-55
2021/10/20 01:39:35;;;;;;;11.80;6.30;;;11.60;99.90;;;;;;5091635;28;20032;-54
2021/10/20 01:42:01;;;;;;;12.45;7.03;;;11.50;99.90;;;;;;5091679;28;20069;-57
2021/10/20 01:44:27;;;;;;;9.48;6.13;;;11.50;99.90;;;;;;5090697;28;20038;-55
2021/10/20 01:46:53;;;;;;;12.77;6.03;;;11.50;99.90;;;;;;5091775;28;20115;-58
2021/10/20 01:49:19;;;;;;;12.82;6.22;;;11.40;99.90;;;;;;5091467;28;20024;-58
2021/10/20 01:51:44;;;;;;;10.13;6.10;;;11.40;99.90;;;;;;5091537;28;20024;-59
2021/10/20 01:54:11;;;;;;;7.43;6.05;;;11.40;99.90;;;;;;5091396;28;20477;-56
2021/10/20 01:56:37;;;;;;;12.23;6.43;;;11.40;99.90;;;;;;5091450;28;20111;-56
2021/10/20 01:59:02;;;;;;;8.15;5.85;;;11.40;99.90;;;;;;5091020;28;20524;-57
2021/10/20 02:01:28;;;;;;;9.10;5.40;;;11.40;99.90;;;;;;5084896;28;20032;-58
2021/10/20 02:03:53;;;;;;;13.75;6.15;;;11.40;99.90;;;;;;5071139;28;20043;-55
2021/10/20 02:06:20;;;;;;;8.32;5.43;;;11.40;99.90;;;;;;5071061;28;20099;-58
2021/10/20 02:08:46;;;;;;;10.05;6.30;;;11.40;99.90;;;;;;5070772;28;20094;-59
2021/10/20 02:11:12;;;;;;;8.98;5.95;;;11.40;99.90;;;;;;5070844;28;20029;-54
2021/10/20 02:13:39;;;;;;;10.35;6.45;;;11.40;99.90;;;;;;5070918;28;20021;-57
2021/10/20 02:16:05;;;;;;;9.38;5.82;;;11.40;99.90;;;;;;5071077;28;20469;-59
2021/10/20 02:18:32;;;;;;;9.27;6.60;;;11.40;99.90;;;;;;5070770;28;20020;-59
2021/10/20 02:20:58;;;;;;;7.85;5.28;;;11.30;99.90;;;;;;5070499;28;20466;-59
2021/10/20 02:23:24;;;;;;;8.75;5.78;;;11.40;99.90;;;;;;5070887;28;20032;-59
2021/10/20 02:25:50;;;;;;;11.85;6.22;;;11.30;99.90;;;;;;5070713;28;20024;-58
2021/10/20 02:28:15;;;;;;;11.18;5.75;;;11.30;99.90;;;;;;5070374;28;20535;-59
2021/10/20 02:30:41;;;;;;;8.55;6.03;;;11.20;99.90;;;;;;5070441;28;20028;-58
2021/10/20 02:33:08;;;;;;;8.88;6.63;;;11.20;99.90;;;;;;5070622;28;20016;-59
2021/10/20 02:35:34;;;;;;;12.32;6.45;;;11.20;99.90;;;;;;5070787;28;20527;-59
2021/10/20 02:38:00;;;;;;;9.18;6.05;;;11.20;99.90;;;;;;5070629;28;20036;-57
2021/10/20 02:40:26;;;;;;;13.07;5.50;;;11.20;99.90;;;;;;5070586;28;20085;-59
2021/10/20 02:42:52;;;;;;;9.93;7.10;;;11.10;99.90;;;;;;5070541;28;20028;-59
2021/10/20 02:45:18;;;;;;;13.27;5.93;;;11.10;99.90;;;;;;5070680;28;20027;-57
2021/10/20 02:47:44;;;;;;;7.90;5.45;;;11.10;99.90;;;;;;5070742;28;20478;-58
2021/10/20 02:50:11;;;;;;;7.05;5.88;;;11.10;99.90;;;;;;5070396;28;20099;-59
2021/10/20 02:52:36;;;;;;;11.45;6.55;;;11.00;99.90;;;;;;5070486;28;20023;-58
2021/10/20 02:55:03;;;;;;;9.82;7.10;;;11.00;99.90;;;;;;5070452;28;20095;-59
2021/10/20 02:57:29;;;;;;;9.85;5.95;;;11.00;99.90;;;;;;5074134;28;20033;-58
2021/10/20 02:59:54;;;;;;;10.32;5.55;;;11.00;99.90;;;;;;5074312;28;20035;-59
2021/10/20 03:02:20;;;;;;;8.18;5.80;;;10.90;99.90;;;;;;5088254;28;20020;-57
2021/10/20 03:04:47;;;;;;;8.93;5.88;;;10.90;99.90;;;;;;5094375;28;20527;-57
2021/10/20 03:07:12;;;;;;;11.93;5.80;;;10.90;99.90;;;;;;5094043;28;20032;-58
2021/10/20 03:09:38;;;;;;;9.32;6.03;;;10.90;99.90;;;;;;5094329;28;20078;-57
2021/10/20 03:12:04;;;;;;;11.73;6.00;;;10.90;99.90;;;;;;5094405;28;20070;-57
2021/10/20 03:14:29;;;;;;;7.38;5.95;;;11.00;99.90;;;;;;5094554;28;20039;-58
2021/10/20 03:16:55;;;;;;;9.80;5.53;;;11.00;99.90;;;;;;5094429;28;20024;-58
2021/10/20 03:19:20;;;;;;;9.80;5.22;;;11.10;99.90;;;;;;5093960;28;20045;-57
2021/10/20 03:21:46;;;;;;;8.88;5.68;;;11.10;99.90;;;;;;5094239;28;20036;-59
2021/10/20 03:24:11;;;;;;;10.60;5.85;;;11.20;99.90;;;;;;5094334;28;20107;-57
2021/10/20 03:26:37;;;;;;;15.23;5.90;;;11.20;99.90;;;;;;5094393;28;20404;-59
2021/10/20 03:29:03;;;;;;;8.57;6.22;;;11.20;99.90;;;;;;5094543;28;20481;-57
2021/10/20 03:31:28;;;;;;;11.20;6.03;;;11.30;99.90;;;;;;5095301;28;20020;-59
2021/10/20 03:33:54;;;;;;;11.35;5.50;;;11.30;99.90;;;;;;5094217;28;20036;-59
2021/10/20 03:36:20;;;;;;;7.80;5.28;;;11.40;99.90;;;;;;5094267;28;20414;-58
2021/10/20 03:38:45;;;;;;;7.53;5.50;;;11.40;99.90;;;;;;5093821;28;20393;-57
2021/10/20 03:41:11;;;;;;;10.02;5.38;;;11.50;99.90;;;;;;5093906;28;20117;-58
2021/10/20 03:43:38;;;;;;;7.35;5.25;;;11.60;99.90;;;;;;5094102;28;20070;-57
2021/10/20 03:46:04;;;;;;;16.60;5.40;;;11.60;99.90;;;;;;5093919;28;20055;-59
2021/10/20 03:48:29;;;;;;;5.82;4.30;;;11.60;99.90;;;;;;5093371;28;20067;-58
2021/10/20 03:50:55;;;;;;;8.13;4.47;;;11.60;99.90;;;;;;5093610;28;20093;-59
2021/10/20 03:53:20;;;;;;;7.10;5.10;;;11.70;99.90;;;;;;5093772;28;20119;-57
2021/10/20 03:55:46;;;;;;;8.05;5.13;;;11.70;99.90;;;;;;5093771;28;20024;-57
2021/10/20 03:58:11;;;;;;;8.40;4.95;;;11.70;99.90;;;;;;5093348;28;20016;-59
2021/10/20 04:00:37;;;;;;;8.00;4.95;;;11.70;99.90;;;;;;5093575;28;20024;-58
2021/10/20 04:03:03;;;;;;;11.35;5.10;;;11.80;99.90;;;;;;5073427;28;20421;-58
2021/10/20 04:05:28;;;;;;;9.75;5.55;;;11.80;99.90;;;;;;5073026;28;20090;-58
2021/10/20 04:07:54;;;;;;;12.70;5.80;;;11.70;99.90;;;;;;5071473;28;20040;-58
2021/10/20 04:10:22;;;;;;;9.07;5.63;;;11.70;99.90;;;;;;5072851;28;20031;-58
2021/10/20 04:12:48;;;;;;;7.68;5.85;;;11.80;99.90;;;;;;5073058;28;20042;-56
2021/10/20 04:15:17;;;;;;;9.02;5.28;;;11.80;99.90;;;;;;5072877;28;20041;-59
2021/10/20 04:17:42;;;;;;;8.15;4.63;;;11.80;99.90;;;;;;5072785;28;20024;-58
2021/10/20 04:20:11;;;;;;;8.90;5.03;;;11.80;99.90;;;;;;5072879;28;20025;-59
2021/10/20 04:22:37;;;;;;;6.82;5.07;;;11.80;99.90;;;;;;5072825;28;20037;-57
2021/10/20 04:25:05;;;;;;;10.75;5.03;;;11.80;99.90;;;;;;5072827;28;20033;-59
2021/10/20 04:27:30;;;;;;;7.88;4.93;;;11.80;99.90;;;;;;5072752;28;20024;-58
2021/10/20 04:29:58;;;;;;;10.68;4.82;;;11.70;99.90;;;;;;5072464;28;20035;-59
2021/10/20 04:32:24;;;;;;;7.18;4.78;;;11.70;99.90;;;;;;5072672;28;20050;-59
2021/10/20 04:34:49;;;;;;;9.75;5.20;;;11.70;99.90;;;;;;5072773;28;20456;-58
2021/10/20 04:37:16;;;;;;;9.02;5.57;;;11.70;99.90;;;;;;5072624;28;20056;-59
2021/10/20 04:39:42;;;;;;;11.50;5.25;;;11.70;99.90;;;;;;5072802;28;20108;-57
2021/10/20 04:42:08;;;;;;;6.18;4.45;;;11.80;99.90;;;;;;5072531;28;20523;-56
2021/10/20 04:44:33;;;;;;;11.07;5.97;;;11.80;99.90;;;;;;5072491;28;20040;-57
2021/10/20 04:46:59;;;;;;;7.75;4.85;;;11.70;99.90;;;;;;5072419;28;20032;-57
2021/10/20 04:49:24;;;;;;;9.00;4.88;;;11.80;99.90;;;;;;5072183;28;20040;-58
2021/10/20 04:51:50;;;;;;;10.80;4.72;;;11.70;99.90;;;;;;5072409;28;20024;-59
2021/10/20 04:54:15;;;;;;;6.55;4.72;;;11.80;99.90;;;;;;5072335;28;20358;-54
2021/10/20 04:56:41;;;;;;;8.43;5.30;;;11.80;99.90;;;;;;5072363;28;20071;-58
2021/10/20 04:59:06;;;;;;;5.07;3.80;;;11.80;99.90;;;;;;5072039;28;20031;-59
2021/10/20 05:01:32;;;;;;;6.75;5.45;;;11.80;99.90;;;;;;5079110;28;20393;-59
2021/10/20 05:03:57;;;;;;;9.43;4.70;;;11.80;99.90;;;;;;5092226;28;20024;-59
2021/10/20 05:06:23;;;;;;;6.82;5.18;;;11.90;99.90;;;;;;5092544;28;20216;-58
2021/10/20 05:08:48;;;;;;;8.20;4.40;;;11.90;99.90;;;;;;5091724;28;20028;-59
2021/10/20 05:11:14;;;;;;;9.52;4.68;;;12.00;99.90;;;;;;5091993;28;20035;-63
2021/10/20 05:13:39;;;;;;;10.07;4.60;;;12.00;99.90;;;;;;5092201;28;20016;-57
2021/10/20 05:16:05;;;;;;;5.82;4.20;;;12.00;99.90;;;;;;5092413;28;20099;-58
2021/10/20 05:18:30;;;;;;;7.15;4.43;;;12.10;99.90;;;;;;5091680;28;20055;-57
2021/10/20 05:20:56;;;;;;;7.35;4.20;;;12.00;99.90;;;;;;5092184;28;20089;-58
2021/10/20 05:23:22;;;;;;;4.30;3.83;;;12.10;99.90;;;;;;5092082;28;20366;-57
2021/10/20 05:25:47;;;;;;;8.52;4.47;;;12.10;99.90;;;;;;5091713;28;20031;-59
2021/10/20 05:28:13;;;;;;;10.35;5.03;;;12.20;99.90;;;;;;5091641;28;20377;-59
2021/10/20 05:30:38;;;;;;;6.60;3.53;;;12.20;99.90;;;;;;5091681;28;20043;-58
2021/10/20 05:33:04;;;;;;;6.57;4.50;;;12.20;99.90;;;;;;5091801;28;20451;-57
2021/10/20 05:35:30;;;;;;;10.45;4.22;;;12.20;99.90;;;;;;5091871;28;20026;-59
2021/10/20 05:37:55;;;;;;;7.15;4.30;;;12.30;99.90;;;;;;5091600;28;20020;-59
2021/10/20 05:40:23;;;;;;;6.07;4.25;;;12.30;99.90;;;;;;5091476;28;20028;-59
2021/10/20 05:42:49;;;;;;;6.45;4.05;;;12.30;99.90;;;;;;5091760;28;20051;-59
2021/10/20 05:45:15;;;;;;;6.18;4.00;;;12.30;99.90;;;;;;5091508;28;20531;-59
2021/10/20 05:47:41;;;;;;;10.60;4.95;;;12.40;99.90;;;;;;5091267;28;20020;-59
2021/10/20 05:50:08;;;;;;;5.97;4.55;;;12.40;99.90;;;;;;5091282;28;20024;-59
2021/10/20 05:52:34;;;;;;;6.68;4.70;;;12.40;99.90;;;;;;5091568;28;20027;-57
2021/10/20 05:54:59;;;;;;;6.95;4.43;;;12.50;99.90;;;;;;5091288;28;20016;-58
2021/10/20 05:57:26;;;;;;;7.55;4.43;;;12.50;99.90;;;;;;5091356;28;20069;-59
2021/10/20 05:59:52;;;;;;;10.93;4.30;;;12.60;99.90;;;;;;5091389;28;20110;-59
2021/10/20 06:02:19;;;;;;;11.95;4.45;;;12.60;99.90;;;;;;5077615;28;20135;-59
2021/10/20 06:04:44;;;;;;;6.40;4.55;;;12.60;99.90;;;;;;5071069;28;20028;-59
2021/10/20 06:07:10;;;;;;;7.50;4.10;;;12.60;99.90;;;;;;5070415;28;20051;-57
2021/10/20 06:09:36;;;;;;;6.35;4.47;;;12.60;99.90;;;;;;5070771;28;20040;-58
2021/10/20 06:12:03;;;;;;;7.30;5.05;;;12.70;99.90;;;;;;5070928;28;20024;-59
2021/10/20 06:14:30;;;;;;;8.75;4.68;;;12.70;99.90;;;;;;5070785;28;20159;-59
2021/10/20 06:16:56;;;;;;;10.10;4.60;;;12.70;99.90;;;;;;5070696;28;20025;-58
2021/10/20 06:19:21;;;;;;;8.15;4.25;;;12.80;99.90;;;;;;5070464;28;20032;-59
2021/10/20 06:21:47;;;;;;;7.80;4.80;;;12.80;99.90;;;;;;5070688;28;20032;-59
2021/10/20 06:24:13;;;;;;;8.68;4.32;;;12.90;99.90;;;;;;5070949;28;20111;-59
2021/10/20 06:26:39;;;;;;;6.53;4.28;;;13.00;99.90;;;;;;5091717;22;20029;-60
2021/10/20 06:29:05;;;;;;;7.20;4.35;;;13.00;99.90;;;;;;5048859;28;20358;-60
2021/10/20 06:31:30;;;;;;;7.65;4.47;;;13.10;99.90;;;;;;5049973;28;20025;-61
2021/10/20 06:33:56;;;;;;;6.25;4.75;;;13.20;99.90;;;;;;5050612;28;20025;-61
2021/10/20 06:36:29;;;;;;;7.88;4.80;;;13.20;99.90;;;;;;5050633;28;20021;-60
2021/10/20 06:38:55;;;;;;;6.20;4.73;;;13.40;99.90;;;;;;5030513;28;20036;-61
2021/10/20 06:41:20;;;;;;;6.50;4.03;;;13.50;99.90;;;;;;5030524;28;20029;-60
2021/10/20 06:43:46;;;;;;;7.40;4.07;;;13.60;99.90;;;;;;5030610;28;20084;-62
2021/10/20 06:46:11;;;;;;;11.38;5.03;;;13.60;99.90;;;;;;5030647;28;20029;-61
2021/10/20 06:48:38;;;;;;;6.88;4.55;;;13.70;99.90;;;;;;5030191;28;20025;-62
2021/10/20 06:51:04;;;;;;;9.75;4.45;;;13.70;99.90;;;;;;5030518;28;20021;-62
2021/10/20 06:53:30;;;;;;;11.57;4.10;;;13.80;99.90;;;;;;5030586;28;20301;-61
2021/10/20 06:55:55;;;;;;;7.22;4.18;;;13.80;99.90;;;;;;5030441;28;20395;-62
2021/10/20 06:58:21;;;;;;;8.57;4.53;;;13.90;99.90;;;;;;5030118;28;20052;-61
2021/10/20 07:00:47;;;;;;;5.28;4.00;;;13.90;99.90;;;;;;5030315;28;20048;-62
2021/10/20 07:03:12;;;;;;;8.80;4.55;;;13.90;99.90;;;;;;5030396;28;20379;-62
2021/10/20 07:05:38;;;;;;;6.25;4.25;;;14.00;99.90;;;;;;5030478;28;20034;-61
2021/10/20 07:08:04;;;;;;;5.38;3.97;;;14.00;99.90;;;;;;5029772;28;20550;-61
2021/10/20 07:10:29;;;;;;;9.48;5.15;;;14.00;99.90;;;;;;5030262;28;20037;-63
2021/10/20 07:12:55;;;;;;;10.07;6.78;;;14.10;99.90;;;;;;5030606;28;20025;-61
2021/10/20 07:15:21;;;;;;;5.93;4.25;;;14.10;99.90;;;;;;5030302;28;20376;-61
2021/10/20 07:17:47;;;;;;;8.20;5.47;;;14.20;99.90;;;;;;5030032;28;20025;-62
2021/10/20 07:20:13;;;;;;;6.97;4.50;;;14.30;99.90;;;;;;5030083;28;20026;-62
2021/10/20 07:22:39;;;;;;;6.95;3.92;;;14.40;99.90;;;;;;5030317;28;20396;-62
2021/10/20 07:25:10;;;;;;;10.32;4.65;;;14.50;99.90;;;;;;5030314;28;20029;-62
2021/10/20 07:27:36;;;;;;;11.85;6.65;;;14.50;99.90;;;;;;5029848;28;20036;-60
2021/10/20 07:30:03;;;;;;;14.05;8.02;;;14.50;99.90;;;;;;5029951;28;20406;-59
2021/10/20 07:32:28;;;;;;;21.90;10.52;;;14.60;99.90;;;;;;5030176;28;20079;-62
2021/10/20 07:34:54;;;;;;;13.40;8.38;;;14.60;99.90;;;;;;5030229;28;20320;-61
2021/10/20 07:37:20;;;;;;;24.15;12.38;;;14.70;99.90;;;;;;5029826;28;20112;-59
2021/10/20 07:39:45;;;;;;;27.88;14.13;;;14.70;99.90;;;;;;5029915;28;20022;-60
2021/10/20 07:42:11;;;;;;;30.92;15.57;;;14.70;99.90;;;;;;5030235;28;20033;-61
2021/10/20 07:44:36;;;;;;;85.93;33.25;;;14.70;99.90;;;;;;5033640;28;20041;-61
2021/10/20 07:47:02;;;;;;;48.47;22.63;;;14.70;99.90;;;;;;5033501;28;20026;-62
2021/10/20 07:49:28;;;;;;;31.48;11.77;;;14.70;99.90;;;;;;5033412;28;20056;-61
2021/10/20 07:51:56;;;;;;;23.67;10.13;;;14.70;99.90;;;;;;5033625;28;20032;-63
2021/10/20 07:54:26;;;;;;;13.48;9.45;;;14.60;99.90;;;;;;5033489;28;20123;-62
2021/10/20 07:56:53;;;;;;;10.02;6.28;;;14.60;99.90;;;;;;5033266;28;20022;-61
2021/10/20 07:59:19;;;;;;;34.35;20.30;;;14.60;99.90;;;;;;5033030;28;20526;-63
2021/10/20 08:01:45;;;;;;;9.60;6.15;;;14.70;99.90;;;;;;5033514;28;20027;-61
2021/10/20 08:04:11;;;;;;;10.05;6.65;;;14.70;99.90;;;;;;5033506;28;20108;-61
2021/10/20 08:06:36;;;;;;;9.38;4.15;;;14.80;99.90;;;;;;5033129;28;20563;-61
2021/10/20 08:09:02;;;;;;;7.78;5.15;;;14.80;99.90;;;;;;5032522;28;20104;-60
2021/10/20 08:11:27;;;;;;;10.07;4.18;;;14.90;99.90;;;;;;5033188;28;20088;-61
2021/10/20 08:13:53;;;;;;;5.82;4.38;;;14.90;99.90;;;;;;5033060;28;20032;-61
2021/10/20 08:16:18;;;;;;;8.90;4.20;;;14.90;99.90;;;;;;5033211;28;20113;-62
2021/10/20 08:18:44;;;;;;;7.25;5.07;;;14.90;99.90;;;;;;5032792;28;20438;-61
2021/10/20 08:21:10;;;;;;;6.95;4.50;;;14.90;99.90;;;;;;5032919;28;20030;-62
2021/10/20 08:23:35;;;;;;;6.25;4.53;;;14.90;99.90;;;;;;5032887;28;20029;-60
2021/10/20 08:26:01;;;;;;;7.55;4.03;;;14.90;99.90;;;;;;5032837;28;20025;-61
2021/10/20 08:28:27;;;;;;;8.32;4.40;;;14.90;99.90;;;;;;5032328;28;20040;-59
2021/10/20 08:30:52;;;;;;;6.97;4.47;;;14.90;99.90;;;;;;5032661;28;20029;-61
2021/10/20 08:33:18;;;;;;;7.55;4.28;;;14.90;99.90;;;;;;5032785;28;20224;-60
2021/10/20 08:35:44;;;;;;;4.85;3.60;;;14.90;99.90;;;;;;5032773;28;20109;-61
2021/10/20 08:38:09;;;;;;;6.28;4.35;;;14.90;99.90;;;;;;5032243;28;20106;-61
2021/10/20 08:40:38;;;;;;;11.18;4.43;;;14.90;99.90;;;;;;5032562;28;20021;-58
2021/10/20 08:43:05;;;;;;;9.85;4.28;;;14.80;99.90;;;;;;5032622;28;20511;-64
2021/10/20 08:45:31;;;;;;;5.03;4.03;;;14.80;99.90;;;;;;5032477;28;20062;-59
2021/10/20 08:47:57;;;;;;;6.28;4.53;;;14.70;99.90;;;;;;5032229;28;20478;-61
2021/10/20 08:50:29;;;;;;;6.93;4.30;;;14.70;99.90;;;;;;5032162;28;20029;-61
2021/10/20 08:52:55;;;;;;;6.90;4.72;;;14.80;99.90;;;;;;5032301;28;20112;-60
2021/10/20 08:55:22;;;;;;;9.95;4.50;;;14.80;99.90;;;;;;5032142;28;20022;-60
2021/10/20 08:57:49;;;;;;;11.00;4.57;;;14.80;99.90;;;;;;5032075;28;20541;-61
2021/10/20 09:00:17;;;;;;;8.30;4.70;;;14.80;99.90;;;;;;5032480;28;20033;-61
2021/10/20 09:02:45;;;;;;;9.68;5.00;;;14.90;99.90;;;;;;5032227;28;20060;-58
2021/10/20 09:05:13;;;;;;;21.05;12.00;;;15.00;99.90;;;;;;5032529;28;20026;-62
2021/10/20 09:07:47;;;;;;;20.13;9.88;;;15.00;99.90;;;;;;5031427;28;20438;-60
2021/10/20 09:10:13;;;;;;;10.38;6.82;;;15.10;99.90;;;;;;5031920;28;20554;-61
2021/10/20 09:12:42;;;;;;;8.32;4.78;;;15.00;99.90;;;;;;5032001;28;20036;-61
2021/10/20 09:15:10;;;;;;;6.32;4.22;;;15.10;99.90;;;;;;5031867;28;20032;-62
2021/10/20 09:17:46;;;;;;;13.25;7.93;;;15.00;99.90;;;;;;5031762;28;20025;-61
2021/10/20 09:20:29;;;;;;;11.60;6.00;;;15.10;99.90;;;;;;5031733;28;20037;-61
2021/10/20 09:23:06;;;;;;;7.30;5.03;;;15.00;99.90;;;;;;5032072;28;20071;-61
2021/10/20 09:25:37;;;;;;;10.27;4.50;;;15.00;99.90;;;;;;5031663;28;20029;-59
2021/10/20 09:28:07;;;;;;;9.68;5.88;;;15.00;99.90;;;;;;5031431;28;20038;-61
2021/10/20 09:30:33;;;;;;;9.25;6.20;;;15.00;99.90;;;;;;5031574;28;20390;-61
2021/10/20 09:33:00;;;;;;;13.13;8.05;;;15.00;99.90;;;;;;5031678;28;20022;-61
2021/10/20 09:35:31;;;;;;;12.10;4.55;;;15.00;99.90;;;;;;5031485;28;20501;-61
2021/10/20 09:38:00;;;;;;;10.18;6.60;;;15.10;99.90;;;;;;5031431;28;20057;-59
2021/10/20 09:40:45;;;;;;;11.57;7.25;;;15.20;99.90;;;;;;5031403;28;20049;-61
2021/10/20 09:43:17;;;;;;;12.13;6.75;;;15.30;99.90;;;;;;5031734;28;20421;-61
2021/10/20 09:45:45;;;;;;;9.65;5.10;;;15.40;99.90;;;;;;5031473;28;20022;-62
2021/10/20 09:48:16;;;;;;;11.60;7.05;;;15.40;99.90;;;;;;5033031;28;20029;-61
2021/10/20 09:50:54;;;;;;;6.60;4.40;;;15.40;99.90;;;;;;5032105;28;20071;-62
2021/10/20 09:53:20;;;;;;;14.23;5.15;;;15.40;99.90;;;;;;5033373;28;20030;-62
2021/10/20 09:55:46;;;;;;;7.68;5.05;;;15.50;99.90;;;;;;5031371;28;20029;-59
2021/10/20 09:58:13;;;;;;;5.57;3.92;;;15.60;99.90;;;;;;5030908;28;20028;-61
2021/10/20 10:00:40;;;;;;;8.75;5.70;;;15.80;99.90;;;;;;5031117;28;20569;-61
2021/10/20 10:03:07;;;;;;;14.20;5.35;;;15.90;99.90;;;;;;5030950;28;20026;-62
2021/10/20 10:05:32;;;;;;;13.38;5.45;;;15.90;99.90;;;;;;5030350;28;20098;-60
2021/10/20 10:07:59;;;;;;;8.02;4.32;;;15.90;99.90;;;;;;5030652;28;20538;-60
2021/10/20 10:10:25;;;;;;;7.28;5.20;;;16.00;99.90;;;;;;5030791;28;20026;-62
2021/10/20 10:12:56;;;;;;;8.50;4.32;;;15.90;99.90;;;;;;5031174;28;20236;-62
2021/10/20 10:15:23;;;;;;;12.55;6.00;;;15.80;99.90;;;;;;5031155;28;20426;-63
2021/10/20 10:17:52;;;;;;;6.20;4.45;;;15.80;99.90;;;;;;5030606;28;20084;-59
2021/10/20 10:20:18;;;;;;;6.28;4.50;;;15.80;99.90;;;;;;5030775;28;20018;-59
2021/10/20 10:22:55;;;;;;;5.45;4.50;;;15.80;99.90;;;;;;5031195;28;20482;-62
2021/10/20 10:25:34;;;;;;;10.82;4.50;;;15.90;99.90;;;;;;5030779;28;20403;-62
2021/10/20 10:28:03;;;;;;;6.22;4.50;;;15.90;99.90;;;;;;5030401;28;20112;-61
2021/10/20 10:30:33;;;;;;;10.93;5.82;;;16.00;99.90;;;;;;5030798;28;20180;-59
2021/10/20 10:33:00;;;;;;;7.82;4.57;;;16.00;99.90;;;;;;5030815;28;20449;-60
2021/10/20 10:35:32;;;;;;;7.60;4.47;;;16.00;99.90;;;;;;5030626;28;20033;-59
2021/10/20 10:38:05;;;;;;;8.73;5.60;;;16.00;99.90;;;;;;5030613;28;20028;-60
2021/10/20 10:40:32;;;;;;;8.10;4.75;;;16.00;99.90;;;;;;5030581;28;20541;-57
2021/10/20 10:43:04;;;;;;;13.10;5.35;;;15.90;99.90;;;;;;5030833;28;20083;-60
2021/10/20 10:45:30;;;;;;;10.02;5.35;;;16.00;99.90;;;;;;5030709;28;20537;-59
2021/10/20 10:48:04;;;;;;;7.88;5.15;;;16.20;99.90;;;;;;5030393;28;20096;-60
2021/10/20 10:50:52;;;;;;;9.57;4.78;;;16.30;99.90;;;;;;5030547;28;20499;-60
2021/10/20 10:53:30;;;;;;;9.50;5.40;;;16.70;99.90;;;;;;5030641;28;20418;-59
2021/10/20 10:56:14;;;;;;;9.82;5.07;;;17.00;99.90;;;;;;5030553;28;20013;-67
2021/10/20 10:58:55;;;;;;;;;;;17.30;99.90;;;;;;5030675;28;20029;-59
2021/10/20 11:01:46;;;;;;;7.25;4.50;;;17.30;99.90;;;;;;5030338;28;20369;-59
2021/10/20 11:04:22;;;;;;;8.20;4.63;;;17.20;99.90;;;;;;5030233;28;20029;-60
2021/10/20 11:06:49;;;;;;;8.55;4.82;;;17.10;99.90;;;;;;5030185;28;20029;-57
2021/10/20 11:09:17;;;;;;;6.32;5.40;;;17.10;99.90;;;;;;5029478;28;20033;-59
2021/10/20 11:11:46;;;;;;;9.60;5.18;;;16.90;99.90;;;;;;5030480;28;20049;-59
2021/10/20 11:14:15;;;;;;;8.82;5.20;;;16.90;99.90;;;;;;5030381;28;20373;-60
2021/10/20 11:16:40;;;;;;;8.45;5.15;;;16.80;99.90;;;;;;5031045;28;20021;-60
2021/10/20 11:19:07;;;;;;;10.32;5.43;;;16.60;99.90;;;;;;5033778;28;20060;-60
2021/10/20 11:21:33;;;;;;;7.80;4.90;;;16.50;99.90;;;;;;5034043;28;20101;-59
2021/10/20 11:23:59;;;;;;;7.97;5.30;;;16.40;99.90;;;;;;5033756;28;20113;-60
2021/10/20 11:26:25;;;;;;;8.50;6.22;;;16.30;99.90;;;;;;5033961;28;20491;-59
2021/10/20 11:28:50;;;;;;;6.85;5.43;;;16.30;99.90;;;;;;5033543;28;20045;-60
2021/10/20 11:31:16;;;;;;;7.43;6.03;;;16.20;99.90;;;;;;5034099;28;20029;-60
2021/10/20 11:33:43;;;;;;;8.02;5.95;;;16.20;99.90;;;;;;5033868;28;20056;-60
2021/10/20 11:36:19;;;;;;;5.90;5.28;;;16.10;99.90;;;;;;5033820;28;20018;-59
2021/10/20 11:38:46;;;;;;;8.43;6.13;;;16.00;99.90;;;;;;5033439;28;20940;-60
2021/10/20 11:41:18;;;;;;;7.03;5.53;;;16.00;99.90;;;;;;5033747;28;20022;-61
2021/10/20 11:43:46;;;;;;;10.40;5.80;;;15.90;99.90;;;;;;5033810;28;20049;-60
2021/10/20 11:46:16;;;;;;;13.82;5.38;;;15.90;99.90;;;;;;5033700;28;20039;-60
2021/10/20 11:48:42;;;;;;;10.07;6.28;;;15.80;99.90;;;;;;5033196;28;20498;-60
2021/10/20 11:51:09;;;;;;;10.85;6.75;;;15.70;99.90;;;;;;5033959;28;20025;-59
2021/10/20 11:53:35;;;;;;;9.15;6.38;;;15.70;99.90;;;;;;5033617;28;20033;-62
2021/10/20 11:56:02;;;;;;;8.90;6.43;;;15.60;99.90;;;;;;5033538;28;20039;-60
2021/10/20 11:58:30;;;;;;;9.15;6.70;;;15.60;99.90;;;;;;5033262;28;20018;-61
2021/10/20 12:01:05;;;;;;;10.18;6.18;;;15.50;99.90;;;;;;5033364;28;20022;-60
2021/10/20 12:03:39;;;;;;;8.85;6.57;;;15.50;99.90;;;;;;5033700;28;20487;-59
2021/10/20 12:06:13;;;;;;;14.30;7.13;;;15.40;99.90;;;;;;5033581;28;20454;-59
2021/10/20 12:08:45;;;;;;;9.50;6.40;;;15.40;99.90;;;;;;5032582;28;20033;-61
2021/10/20 12:11:14;;;;;;;9.55;6.65;;;15.40;99.90;;;;;;5033153;28;20033;-60
2021/10/20 12:13:40;;;;;;;11.27;7.68;;;15.40;99.90;;;;;;5033404;28;20032;-60
2021/10/20 12:16:11;;;;;;;12.45;7.70;;;15.40;99.90;;;;;;5033138;28;20013;-60
2021/10/20 12:18:38;;;;;;;14.02;8.88;;;15.40;99.90;;;;;;5032910;28;20408;-60
2021/10/20 12:21:11;;;;;;;9.63;6.90;;;15.40;99.90;;;;;;5032922;28;20025;-60
2021/10/20 12:23:37;;;;;;;9.43;7.18;;;15.40;99.90;;;;;;5032977;28;20021;-60
2021/10/20 12:26:04;;;;;;;19.10;10.70;;;15.40;99.90;;;;;;5033238;28;20017;-60
2021/10/20 12:28:30;;;;;;;19.15;11.40;;;15.50;99.90;;;;;;5057963;22;20045;-58
2021/10/20 12:30:56;;;;;;;10.73;7.45;;;15.50;99.90;;;;;;5093148;28;20032;-58
2021/10/20 12:33:23;;;;;;;21.13;11.88;;;15.50;99.90;;;;;;5092846;28;20027;-57
2021/10/20 12:35:50;;;;;;;25.42;11.98;;;15.50;99.90;;;;;;5093038;28;20035;-57
2021/10/20 12:38:16;;;;;;;14.15;9.20;;;15.60;99.90;;;;;;5092513;28;20024;-60
2021/10/20 12:40:45;;;;;;;8.23;5.82;;;15.70;99.90;;;;;;5092808;28;20035;-60
2021/10/20 12:43:15;;;;;;;7.13;5.53;;;15.70;99.90;;;;;;5092833;28;20106;-60